sensor_id;sensor_type;location;lat;lon;timestamp;P1;durP1;ratioP1;P2;durP2;ratioP2
55346;SDS011;41218;55.700;38.270;2022-09-09T00:14:18;4.65;;;1.85;;
55346;SDS011;41218;55.700;38.270;2022-09-09T00:19:32;3.63;;;2.15;;
55346;SDS011;41218;55.700;38.270;2022-09-09T00:24:48;2.58;;;1.80;;
55346;SDS011;41218;55.700;38.270;2022-09-09T00:35:23;2.92;;;1.88;;
55346;SDS011;41218;55.700;38.270;2022-09-09T00:51:25;3.20;;;1.85;;
55346;SDS011;41218;55.700;38.270;2022-09-09T00:56:50;2.90;;;1.80;;
55346;SDS011;41218;55.700;38.270;2022-09-09T01:02:06;4.90;;;2.20;;
55346;SDS011;41218;55.700;38.270;2022-09-09T01:07:16;4.13;;;1.90;;
55346;SDS011;41218;55.700;38.270;2022-09-09T01:12:28;3.20;;;1.98;;
55346;SDS011;41218;55.700;38.270;2022-09-09T01:17:45;2.83;;;1.80;;
55346;SDS011;41218;55.700;38.270;2022-09-09T01:22:59;3.20;;;1.90;;
55346;SDS011;41218;55.700;38.270;2022-09-09T01:28:17;2.00;;;1.42;;
55346;SDS011;41218;55.700;38.270;2022-09-09T01:33:22;2.40;;;1.55;;
55346;SDS011;41218;55.700;38.270;2022-09-09T01:38:24;2.75;;;1.90;;
55346;SDS011;41218;55.700;38.270;2022-09-09T01:48:27;3.60;;;1.75;;
55346;SDS011;41218;55.700;38.270;2022-09-09T01:53:28;3.60;;;1.80;;
55346;SDS011;41218;55.700;38.270;2022-09-09T02:04:01;2.30;;;1.60;;
55346;SDS011;41218;55.700;38.270;2022-09-09T02:09:10;4.57;;;1.52;;
55346;SDS011;41218;55.700;38.270;2022-09-09T02:14:14;2.08;;;1.63;;
55346;SDS011;41218;55.700;38.270;2022-09-09T02:19:22;3.80;;;1.85;;
55346;SDS011;41218;55.700;38.270;2022-09-09T02:24:31;2.97;;;1.70;;
55346;SDS011;41218;55.700;38.270;2022-09-09T02:29:55;3.38;;;1.95;;
55346;SDS011;41218;55.700;38.270;2022-09-09T02:35:04;2.92;;;1.60;;
55346;SDS011;41218;55.700;38.270;2022-09-09T02:40:10;3.03;;;1.60;;
55346;SDS011;41218;55.700;38.270;2022-09-09T02:45:12;2.75;;;1.75;;
55346;SDS011;41218;55.700;38.270;2022-09-09T02:50:20;2.17;;;1.60;;
55346;SDS011;41218;55.700;38.270;2022-09-09T03:01:09;2.78;;;1.80;;
55346;SDS011;41218;55.700;38.270;2022-09-09T03:06:10;4.10;;;1.83;;
55346;SDS011;41218;55.700;38.270;2022-09-09T03:11:11;2.30;;;1.50;;
55346;SDS011;41218;55.700;38.270;2022-09-09T03:16:14;3.15;;;1.67;;
55346;SDS011;41218;55.700;38.270;2022-09-09T03:21:15;3.03;;;1.83;;
55346;SDS011;41218;55.700;38.270;2022-09-09T03:26:15;2.40;;;1.53;;
55346;SDS011;41218;55.700;38.270;2022-09-09T03:31:16;3.33;;;1.70;;
55346;SDS011;41218;55.700;38.270;2022-09-09T03:36:17;2.30;;;1.70;;
55346;SDS011;41218;55.700;38.270;2022-09-09T03:41:17;3.30;;;1.77;;
55346;SDS011;41218;55.700;38.270;2022-09-09T03:46:19;1.77;;;1.30;;
55346;SDS011;41218;55.700;38.270;2022-09-09T03:51:23;2.15;;;1.58;;
55346;SDS011;41218;55.700;38.270;2022-09-09T03:56:24;2.97;;;1.60;;
55346;SDS011;41218;55.700;38.270;2022-09-09T04:01:25;2.23;;;1.53;;
55346;SDS011;41218;55.700;38.270;2022-09-09T04:06:26;3.00;;;1.70;;
55346;SDS011;41218;55.700;38.270;2022-09-09T04:11:30;4.60;;;2.30;;
55346;SDS011;41218;55.700;38.270;2022-09-09T04:16:34;3.88;;;1.88;;
55346;SDS011;41218;55.700;38.270;2022-09-09T04:21:38;5.13;;;1.75;;
55346;SDS011;41218;55.700;38.270;2022-09-09T04:26:51;6.18;;;2.00;;
55346;SDS011;41218;55.700;38.270;2022-09-09T04:32:14;2.10;;;1.50;;
55346;SDS011;41218;55.700;38.270;2022-09-09T04:37:15;2.63;;;1.55;;
55346;SDS011;41218;55.700;38.270;2022-09-09T04:42:16;3.42;;;1.90;;
55346;SDS011;41218;55.700;38.270;2022-09-09T04:47:30;2.90;;;1.42;;
55346;SDS011;41218;55.700;38.270;2022-09-09T04:57:37;2.43;;;1.43;;
55346;SDS011;41218;55.700;38.270;2022-09-09T05:03:05;2.75;;;1.60;;
55346;SDS011;41218;55.700;38.270;2022-09-09T05:08:37;1.90;;;1.40;;
55346;SDS011;41218;55.700;38.270;2022-09-09T05:20:00;4.47;;;1.30;;
55346;SDS011;41218;55.700;38.270;2022-09-09T05:44:17;2.38;;;1.35;;
55346;SDS011;41218;55.700;38.270;2022-09-09T05:56:10;1.67;;;1.30;;
55346;SDS011;41218;55.700;38.270;2022-09-09T06:02:08;2.35;;;1.60;;
55346;SDS011;41218;55.700;38.270;2022-09-09T06:25:42;1.70;;;1.27;;
55346;SDS011;41218;55.700;38.270;2022-09-09T06:53:08;1.83;;;1.20;;
55346;SDS011;41218;55.700;38.270;2022-09-09T07:04:04;1.45;;;1.00;;
55346;SDS011;41218;55.700;38.270;2022-09-09T07:15:46;1.10;;;0.90;;
55346;SDS011;41218;55.700;38.270;2022-09-09T07:21:03;1.55;;;0.90;;
55346;SDS011;41218;55.700;38.270;2022-09-09T07:38:27;1.48;;;0.88;;
55346;SDS011;41218;55.700;38.270;2022-09-09T07:43:29;3.38;;;0.88;;
55346;SDS011;41218;55.700;38.270;2022-09-09T07:48:32;0.90;;;0.80;;
55346;SDS011;41218;55.700;38.270;2022-09-09T07:59:09;1.55;;;0.90;;
55346;SDS011;41218;55.700;38.270;2022-09-09T08:04:11;1.48;;;0.80;;
55346;SDS011;41218;55.700;38.270;2022-09-09T08:09:36;0.93;;;0.75;;
55346;SDS011;41218;55.700;38.270;2022-09-09T08:14:47;1.13;;;1.00;;
55346;SDS011;41218;55.700;38.270;2022-09-09T08:20:01;1.00;;;0.90;;
55346;SDS011;41218;55.700;38.270;2022-09-09T08:25:26;1.77;;;1.10;;
55346;SDS011;41218;55.700;38.270;2022-09-09T08:30:33;1.65;;;1.00;;
55346;SDS011;41218;55.700;38.270;2022-09-09T08:36:44;0.85;;;0.70;;
55346;SDS011;41218;55.700;38.270;2022-09-09T08:41:59;0.52;;;0.52;;
55346;SDS011;41218;55.700;38.270;2022-09-09T08:47:14;1.00;;;0.70;;
55346;SDS011;41218;55.700;38.270;2022-09-09T08:52:30;0.90;;;0.68;;
55346;SDS011;41218;55.700;38.270;2022-09-09T08:57:39;0.90;;;0.70;;
55346;SDS011;41218;55.700;38.270;2022-09-09T09:02:48;0.80;;;0.60;;
55346;SDS011;41218;55.700;38.270;2022-09-09T09:18:33;0.98;;;0.60;;
55346;SDS011;41218;55.700;38.270;2022-09-09T09:23:45;0.82;;;0.70;;
55346;SDS011;41218;55.700;38.270;2022-09-09T09:29:10;0.60;;;0.50;;
55346;SDS011;41218;55.700;38.270;2022-09-09T09:34:15;1.38;;;0.65;;
55346;SDS011;41218;55.700;38.270;2022-09-09T09:39:30;0.50;;;0.50;;
55346;SDS011;41218;55.700;38.270;2022-09-09T09:44:38;0.88;;;0.68;;
55346;SDS011;41218;55.700;38.270;2022-09-09T09:49:54;0.90;;;0.50;;
55346;SDS011;41218;55.700;38.270;2022-09-09T09:54:56;2.03;;;0.50;;
55346;SDS011;41218;55.700;38.270;2022-09-09T10:00:04;1.23;;;0.40;;
55346;SDS011;41218;55.700;38.270;2022-09-09T10:05:19;1.05;;;0.60;;
55346;SDS011;41218;55.700;38.270;2022-09-09T10:10:22;0.80;;;0.60;;
55346;SDS011;41218;55.700;38.270;2022-09-09T10:15:42;1.00;;;0.70;;
55346;SDS011;41218;55.700;38.270;2022-09-09T10:36:59;0.60;;;0.43;;
55346;SDS011;41218;55.700;38.270;2022-09-09T10:53:00;1.05;;;0.77;;
55346;SDS011;41218;55.700;38.270;2022-09-09T10:58:19;1.90;;;0.50;;
55346;SDS011;41218;55.700;38.270;2022-09-09T11:03:41;0.90;;;0.50;;
55346;SDS011;41218;55.700;38.270;2022-09-09T11:08:45;1.20;;;0.63;;
55346;SDS011;41218;55.700;38.270;2022-09-09T11:24:40;1.00;;;0.77;;
55346;SDS011;41218;55.700;38.270;2022-09-09T11:40:45;1.42;;;0.85;;
55346;SDS011;41218;55.700;38.270;2022-09-09T11:45:54;0.70;;;0.65;;
55346;SDS011;41218;55.700;38.270;2022-09-09T11:51:08;0.90;;;0.70;;
55346;SDS011;41218;55.700;38.270;2022-09-09T12:06:45;4.22;;;0.88;;
55346;SDS011;41218;55.700;38.270;2022-09-09T12:12:16;1.48;;;1.00;;
55346;SDS011;41218;55.700;38.270;2022-09-09T12:17:28;2.33;;;0.98;;
55346;SDS011;41218;55.700;38.270;2022-09-09T12:23:06;1.07;;;0.60;;
55346;SDS011;41218;55.700;38.270;2022-09-09T12:33:16;1.80;;;0.97;;
55346;SDS011;41218;55.700;38.270;2022-09-09T12:38:22;2.35;;;1.10;;
55346;SDS011;41218;55.700;38.270;2022-09-09T12:43:32;2.05;;;1.00;;
55346;SDS011;41218;55.700;38.270;2022-09-09T12:48:36;1.00;;;0.80;;
55346;SDS011;41218;55.700;38.270;2022-09-09T12:53:43;1.23;;;0.93;;
55346;SDS011;41218;55.700;38.270;2022-09-09T12:58:46;1.00;;;0.82;;
55346;SDS011;41218;55.700;38.270;2022-09-09T13:03:51;0.75;;;0.60;;
55346;SDS011;41218;55.700;38.270;2022-09-09T13:08:53;1.88;;;1.02;;
55346;SDS011;41218;55.700;38.270;2022-09-09T13:13:56;1.67;;;1.13;;
55346;SDS011;41218;55.700;38.270;2022-09-09T13:18:58;2.45;;;1.20;;
55346;SDS011;41218;55.700;38.270;2022-09-09T13:24:01;1.30;;;0.90;;
55346;SDS011;41218;55.700;38.270;2022-09-09T13:29:09;1.45;;;1.08;;
55346;SDS011;41218;55.700;38.270;2022-09-09T13:34:30;1.92;;;0.95;;
55346;SDS011;41218;55.700;38.270;2022-09-09T13:39:36;1.70;;;0.80;;
55346;SDS011;41218;55.700;38.270;2022-09-09T13:44:38;3.35;;;1.00;;
55346;SDS011;41218;55.700;38.270;2022-09-09T13:49:46;2.03;;;1.30;;
55346;SDS011;41218;55.700;38.270;2022-09-09T13:55:08;3.33;;;1.63;;
55346;SDS011;41218;55.700;38.270;2022-09-09T14:00:10;2.05;;;1.20;;
55346;SDS011;41218;55.700;38.270;2022-09-09T14:05:14;2.00;;;1.27;;
55346;SDS011;41218;55.700;38.270;2022-09-09T14:10:16;0.95;;;0.82;;
55346;SDS011;41218;55.700;38.270;2022-09-09T14:15:16;1.98;;;1.10;;
55346;SDS011;41218;55.700;38.270;2022-09-09T14:20:17;1.23;;;0.88;;
55346;SDS011;41218;55.700;38.270;2022-09-09T14:25:19;1.73;;;0.82;;
55346;SDS011;41218;55.700;38.270;2022-09-09T14:30:20;1.83;;;0.80;;
55346;SDS011;41218;55.700;38.270;2022-09-09T14:35:23;5.13;;;1.10;;
55346;SDS011;41218;55.700;38.270;2022-09-09T14:40:24;2.22;;;1.30;;
55346;SDS011;41218;55.700;38.270;2022-09-09T14:45:25;2.00;;;1.13;;
55346;SDS011;41218;55.700;38.270;2022-09-09T14:50:26;2.08;;;1.10;;
55346;SDS011;41218;55.700;38.270;2022-09-09T14:55:27;3.15;;;1.20;;
55346;SDS011;41218;55.700;38.270;2022-09-09T15:00:30;5.35;;;1.67;;
55346;SDS011;41218;55.700;38.270;2022-09-09T15:05:31;4.35;;;1.35;;
55346;SDS011;41218;55.700;38.270;2022-09-09T15:10:32;2.13;;;1.40;;
55346;SDS011;41218;55.700;38.270;2022-09-09T15:15:33;3.75;;;1.80;;
55346;SDS011;41218;55.700;38.270;2022-09-09T15:20:34;3.90;;;1.50;;
55346;SDS011;41218;55.700;38.270;2022-09-09T15:25:37;2.47;;;1.45;;
55346;SDS011;41218;55.700;38.270;2022-09-09T15:30:38;3.23;;;1.53;;
55346;SDS011;41218;55.700;38.270;2022-09-09T15:35:38;4.67;;;1.37;;
55346;SDS011;41218;55.700;38.270;2022-09-09T15:40:39;3.20;;;1.57;;
55346;SDS011;41218;55.700;38.270;2022-09-09T15:45:40;2.90;;;1.63;;
55346;SDS011;41218;55.700;38.270;2022-09-09T15:50:40;4.23;;;1.80;;
55346;SDS011;41218;55.700;38.270;2022-09-09T15:55:41;3.15;;;1.67;;
55346;SDS011;41218;55.700;38.270;2022-09-09T16:00:42;2.83;;;1.75;;
55346;SDS011;41218;55.700;38.270;2022-09-09T16:05:43;2.53;;;1.73;;
55346;SDS011;41218;55.700;38.270;2022-09-09T16:10:44;3.37;;;1.83;;
55346;SDS011;41218;55.700;38.270;2022-09-09T16:15:45;3.13;;;2.10;;
55346;SDS011;41218;55.700;38.270;2022-09-09T16:20:54;3.80;;;1.88;;
55346;SDS011;41218;55.700;38.270;2022-09-09T16:25:55;4.13;;;1.80;;
55346;SDS011;41218;55.700;38.270;2022-09-09T16:30:56;4.63;;;2.30;;
55346;SDS011;41218;55.700;38.270;2022-09-09T16:35:58;4.47;;;2.35;;
55346;SDS011;41218;55.700;38.270;2022-09-09T16:41:06;3.67;;;2.22;;
55346;SDS011;41218;55.700;38.270;2022-09-09T16:46:14;4.10;;;2.50;;
55346;SDS011;41218;55.700;38.270;2022-09-09T16:51:21;5.07;;;2.65;;
55346;SDS011;41218;55.700;38.270;2022-09-09T16:56:28;5.05;;;2.75;;
55346;SDS011;41218;55.700;38.270;2022-09-09T17:01:33;4.35;;;2.58;;
55346;SDS011;41218;55.700;38.270;2022-09-09T17:06:37;4.85;;;2.75;;
55346;SDS011;41218;55.700;38.270;2022-09-09T17:11:38;5.57;;;3.00;;
55346;SDS011;41218;55.700;38.270;2022-09-09T17:16:39;4.25;;;2.75;;
55346;SDS011;41218;55.700;38.270;2022-09-09T17:21:40;5.93;;;2.75;;
55346;SDS011;41218;55.700;38.270;2022-09-09T17:26:41;5.70;;;3.40;;
55346;SDS011;41218;55.700;38.270;2022-09-09T17:31:42;4.63;;;2.77;;
55346;SDS011;41218;55.700;38.270;2022-09-09T17:36:42;6.63;;;3.43;;
55346;SDS011;41218;55.700;38.270;2022-09-09T17:41:43;7.87;;;3.60;;
55346;SDS011;41218;55.700;38.270;2022-09-09T17:46:44;5.53;;;3.23;;
55346;SDS011;41218;55.700;38.270;2022-09-09T17:51:45;6.65;;;3.30;;
55346;SDS011;41218;55.700;38.270;2022-09-09T17:56:47;9.80;;;4.00;;
55346;SDS011;41218;55.700;38.270;2022-09-09T18:01:48;7.85;;;3.38;;
55346;SDS011;41218;55.700;38.270;2022-09-09T18:11:52;6.40;;;3.45;;
55346;SDS011;41218;55.700;38.270;2022-09-09T18:16:55;7.60;;;3.47;;
55346;SDS011;41218;55.700;38.270;2022-09-09T18:26:58;8.30;;;4.20;;
55346;SDS011;41218;55.700;38.270;2022-09-09T18:31:59;7.90;;;4.05;;
55346;SDS011;41218;55.700;38.270;2022-09-09T18:36:59;7.63;;;4.13;;
55346;SDS011;41218;55.700;38.270;2022-09-09T18:42:00;10.80;;;4.70;;
55346;SDS011;41218;55.700;38.270;2022-09-09T18:47:01;9.15;;;5.07;;
55346;SDS011;41218;55.700;38.270;2022-09-09T18:52:02;8.93;;;4.80;;
55346;SDS011;41218;55.700;38.270;2022-09-09T18:57:03;8.30;;;4.90;;
55346;SDS011;41218;55.700;38.270;2022-09-09T19:02:04;12.48;;;4.78;;
55346;SDS011;41218;55.700;38.270;2022-09-09T19:07:05;8.63;;;4.70;;
55346;SDS011;41218;55.700;38.270;2022-09-09T19:12:06;9.37;;;5.40;;
55346;SDS011;41218;55.700;38.270;2022-09-09T19:17:07;11.93;;;5.60;;
55346;SDS011;41218;55.700;38.270;2022-09-09T19:22:07;10.80;;;5.37;;
55346;SDS011;41218;55.700;38.270;2022-09-09T19:27:13;10.77;;;4.93;;
55346;SDS011;41218;55.700;38.270;2022-09-09T19:32:13;10.00;;;5.37;;
55346;SDS011;41218;55.700;38.270;2022-09-09T19:37:14;10.60;;;5.50;;
55346;SDS011;41218;55.700;38.270;2022-09-09T19:42:15;9.87;;;4.83;;
55346;SDS011;41218;55.700;38.270;2022-09-09T19:47:16;8.53;;;5.13;;
55346;SDS011;41218;55.700;38.270;2022-09-09T19:52:18;11.80;;;5.18;;
55346;SDS011;41218;55.700;38.270;2022-09-09T19:57:19;9.20;;;5.07;;
55346;SDS011;41218;55.700;38.270;2022-09-09T20:02:20;10.55;;;4.82;;
55346;SDS011;41218;55.700;38.270;2022-09-09T20:07:21;11.23;;;4.87;;
55346;SDS011;41218;55.700;38.270;2022-09-09T20:12:25;14.02;;;5.35;;
55346;SDS011;41218;55.700;38.270;2022-09-09T20:17:26;10.70;;;5.35;;
55346;SDS011;41218;55.700;38.270;2022-09-09T20:22:26;10.67;;;5.40;;
55346;SDS011;41218;55.700;38.270;2022-09-09T20:27:27;12.43;;;5.60;;
55346;SDS011;41218;55.700;38.270;2022-09-09T20:32:28;11.10;;;5.47;;
55346;SDS011;41218;55.700;38.270;2022-09-09T20:37:30;12.57;;;6.20;;
55346;SDS011;41218;55.700;38.270;2022-09-09T20:42:31;11.60;;;5.87;;
55346;SDS011;41218;55.700;38.270;2022-09-09T20:47:34;12.03;;;6.37;;
55346;SDS011;41218;55.700;38.270;2022-09-09T20:52:35;13.73;;;6.47;;
55346;SDS011;41218;55.700;38.270;2022-09-09T20:57:37;15.85;;;7.10;;
55346;SDS011;41218;55.700;38.270;2022-09-09T21:02:37;15.40;;;6.90;;
55346;SDS011;41218;55.700;38.270;2022-09-09T21:07:38;16.20;;;7.87;;
55346;SDS011;41218;55.700;38.270;2022-09-09T21:12:39;20.83;;;9.40;;
55346;SDS011;41218;55.700;38.270;2022-09-09T21:17:39;23.10;;;11.07;;
55346;SDS011;41218;55.700;38.270;2022-09-09T21:22:40;31.23;;;14.90;;
55346;SDS011;41218;55.700;38.270;2022-09-09T21:27:41;73.83;;;29.53;;
55346;SDS011;41218;55.700;38.270;2022-09-09T21:32:41;124.13;;;50.70;;
55346;SDS011;41218;55.700;38.270;2022-09-09T21:37:42;138.87;;;50.83;;
55346;SDS011;41218;55.700;38.270;2022-09-09T21:42:43;135.30;;;52.37;;
55346;SDS011;41218;55.700;38.270;2022-09-09T21:47:45;142.90;;;54.70;;
55346;SDS011;41218;55.700;38.270;2022-09-09T21:52:49;122.28;;;49.05;;
55346;SDS011;41218;55.700;38.270;2022-09-09T21:57:50;132.38;;;48.88;;
55346;SDS011;41218;55.700;38.270;2022-09-09T22:02:53;113.55;;;44.45;;
55346;SDS011;41218;55.700;38.270;2022-09-09T22:07:54;113.47;;;45.97;;
55346;SDS011;41218;55.700;38.270;2022-09-09T22:12:55;110.13;;;43.43;;
55346;SDS011;41218;55.700;38.270;2022-09-09T22:17:55;99.90;;;41.20;;
55346;SDS011;41218;55.700;38.270;2022-09-09T22:23:00;78.65;;;35.33;;
55346;SDS011;41218;55.700;38.270;2022-09-09T22:28:01;77.15;;;33.65;;
55346;SDS011;41218;55.700;38.270;2022-09-09T22:33:03;75.03;;;30.05;;
55346;SDS011;41218;55.700;38.270;2022-09-09T22:38:04;73.38;;;30.05;;
55346;SDS011;41218;55.700;38.270;2022-09-09T22:43:05;70.50;;;28.10;;
55346;SDS011;41218;55.700;38.270;2022-09-09T22:48:12;49.70;;;22.92;;
55346;SDS011;41218;55.700;38.270;2022-09-09T22:53:15;49.65;;;22.70;;
55346;SDS011;41218;55.700;38.270;2022-09-09T22:58:17;43.95;;;21.17;;
55346;SDS011;41218;55.700;38.270;2022-09-09T23:03:20;45.40;;;21.70;;
55346;SDS011;41218;55.700;38.270;2022-09-09T23:08:22;51.10;;;21.73;;
55346;SDS011;41218;55.700;38.270;2022-09-09T23:13:25;61.55;;;24.90;;
55346;SDS011;41218;55.700;38.270;2022-09-09T23:18:29;54.58;;;23.55;;
55346;SDS011;41218;55.700;38.270;2022-09-09T23:23:33;56.03;;;23.88;;
55346;SDS011;41218;55.700;38.270;2022-09-09T23:28:34;56.25;;;23.15;;
55346;SDS011;41218;55.700;38.270;2022-09-09T23:33:37;61.05;;;21.90;;
55346;SDS011;41218;55.700;38.270;2022-09-09T23:38:39;63.88;;;23.15;;
55346;SDS011;41218;55.700;38.270;2022-09-09T23:43:40;52.88;;;22.27;;
55346;SDS011;41218;55.700;38.270;2022-09-09T23:48:44;57.40;;;22.90;;
55346;SDS011;41218;55.700;38.270;2022-09-09T23:53:51;58.38;;;22.13;;
55346;SDS011;41218;55.700;38.270;2022-09-09T23:58:53;61.78;;;23.25;;
